createdAt,value
2018-08-24T00:00:02.722Z,101726.71
2018-08-24T00:02:31.411Z,101723.78
2018-08-24T00:05:00.143Z,101730.77
2018-08-24T00:07:28.938Z,101731.09
2018-08-24T00:09:57.539Z,101729.94
2018-08-24T00:12:26.179Z,101724.48
2018-08-24T00:14:55.721Z,101729.98
2018-08-24T00:17:31.099Z,101731.98
2018-08-24T00:20:00.693Z,101728.89
2018-08-24T00:22:29.393Z,101733.69
2018-08-24T00:24:58.040Z,101744.28
2018-08-24T00:27:26.697Z,101736.92
2018-08-24T00:29:55.392Z,101739.55
2018-08-24T00:32:24.068Z,101727.98
2018-08-24T00:34:52.930Z,101730.46
2018-08-24T00:37:21.606Z,101733.55
2018-08-24T00:39:50.271Z,101732.63
2018-08-24T00:42:18.951Z,101733.94
2018-08-24T00:44:47.599Z,101733.64
2018-08-24T00:47:16.276Z,101733.09
2018-08-24T00:49:44.935Z,101738.28
2018-08-24T00:52:13.608Z,101742.22
2018-08-24T00:54:42.296Z,101732.34
2018-08-24T00:57:10.973Z,101736.64
2018-08-24T00:59:39.662Z,101738.05
2018-08-24T01:02:08.371Z,101734.20
2018-08-24T01:04:37.390Z,101735.58
2018-08-24T01:07:11.066Z,101740.06
2018-08-24T01:09:40.529Z,101739.20
2018-08-24T01:12:10.283Z,101733.56
2018-08-24T01:14:40.104Z,101727.19
2018-08-24T01:17:13.915Z,101735.27
2018-08-24T01:19:43.173Z,101728.71
2018-08-24T01:22:11.872Z,101723.70
2018-08-24T01:24:40.591Z,101736.18
2018-08-24T01:27:09.736Z,101725.83
2018-08-24T01:29:39.603Z,101723.91
2018-08-24T01:32:08.457Z,101723.05
2018-08-24T01:34:37.755Z,101720.52
2018-08-24T01:37:06.562Z,101740.58
2018-08-24T01:39:35.245Z,101732.70
2018-08-24T01:42:03.972Z,101737.74
2018-08-24T01:44:32.644Z,101734.42
2018-08-24T01:47:01.291Z,101771.56
2018-08-24T01:49:29.952Z,101739.00
2018-08-24T01:51:58.617Z,101749.13
2018-08-24T01:54:27.253Z,101743.02
2018-08-24T01:56:55.952Z,101745.56
2018-08-24T01:59:24.678Z,101746.62
2018-08-24T02:01:53.310Z,101745.86
2018-08-24T02:04:21.980Z,101751.98
2018-08-24T02:06:50.629Z,101747.28
2018-08-24T02:09:22.379Z,101743.80
2018-08-24T02:11:51.429Z,101736.39
2018-08-24T02:14:25.391Z,101740.72
2018-08-24T02:16:54.173Z,101743.66
2018-08-24T02:19:27.884Z,101751.47
2018-08-24T02:22:01.826Z,101745.31
2018-08-24T02:24:30.503Z,101746.71
2018-08-24T02:26:59.211Z,101754.34
2018-08-24T02:29:27.884Z,101745.62
2018-08-24T02:31:57.762Z,101739.16
2018-08-24T02:34:26.443Z,101753.42
2018-08-24T02:36:55.103Z,101755.66
2018-08-24T02:39:23.766Z,101755.25
2018-08-24T02:41:52.447Z,101756.20
2018-08-24T02:44:21.152Z,101768.00
2018-08-24T02:46:49.829Z,101764.52
2018-08-24T02:49:18.460Z,101759.59
2018-08-24T02:51:47.111Z,101760.05
2018-08-24T02:54:15.801Z,101761.35
2018-08-24T02:56:44.480Z,101760.13
2018-08-24T02:59:13.209Z,101757.11
2018-08-24T03:01:41.913Z,101757.11
2018-08-24T03:04:10.580Z,101756.96
2018-08-24T03:06:40.102Z,101757.73
2018-08-24T03:09:10.526Z,101767.31
2018-08-24T03:11:39.287Z,101760.20
2018-08-24T03:14:08.209Z,101756.81
2018-08-24T03:16:36.929Z,101758.44
2018-08-24T03:19:05.574Z,101768.84
2018-08-24T03:21:34.273Z,101767.07
2018-08-24T03:24:03.006Z,101766.61
2018-08-24T03:26:31.671Z,101759.60
2018-08-24T03:29:00.350Z,101762.59
2018-08-24T03:31:29.058Z,101759.91
2018-08-24T03:33:57.736Z,101757.66
2018-08-24T03:36:26.396Z,101761.22
2018-08-24T03:38:55.064Z,101768.14
2018-08-24T03:41:23.751Z,101756.58
2018-08-24T03:43:52.478Z,101753.50
2018-08-24T03:46:21.179Z,101759.52
2018-08-24T03:48:49.847Z,101765.16
2018-08-24T03:51:18.529Z,101758.75
2018-08-24T03:53:47.210Z,101759.14
2018-08-24T03:56:15.922Z,101757.34
2018-08-24T03:58:44.605Z,101754.27
2018-08-24T04:01:13.297Z,101763.45
2018-08-24T04:03:41.960Z,101762.68
2018-08-24T04:06:10.621Z,101753.95
2018-08-24T04:08:39.269Z,101751.79
2018-08-24T04:11:07.951Z,101761.06
2018-08-24T04:13:36.599Z,101760.20
2018-08-24T04:16:05.270Z,101768.08
2018-08-24T04:18:33.959Z,101764.14
2018-08-24T04:21:02.616Z,101760.20
2018-08-24T04:23:31.297Z,101754.96
2018-08-24T04:25:59.951Z,101752.34
2018-08-24T04:28:28.625Z,101753.65
2018-08-24T04:30:57.278Z,101746.88
2018-08-24T04:33:25.935Z,101760.35
2018-08-24T04:35:54.597Z,101762.97
2018-08-24T04:38:23.261Z,101759.98
2018-08-24T04:40:52.063Z,101766.14
2018-08-24T04:43:20.705Z,101761.44
2018-08-24T04:45:49.415Z,101762.61
2018-08-24T04:48:18.079Z,101767.85
2018-08-24T04:50:46.762Z,101762.97
2018-08-24T04:53:15.444Z,101766.05
2018-08-24T04:55:44.184Z,101767.31
2018-08-24T04:58:12.860Z,101765.91
2018-08-24T05:00:41.599Z,101765.05
2018-08-24T05:03:10.266Z,101763.73
2018-08-24T05:05:39.074Z,101765.55
2018-08-24T05:08:07.760Z,101760.75
2018-08-24T05:10:36.441Z,101769.93
2018-08-24T05:13:05.117Z,101762.20
2018-08-24T05:15:34.203Z,101762.61
2018-08-24T05:18:02.908Z,101759.90
2018-08-24T05:20:31.585Z,101753.25
2018-08-24T05:23:00.273Z,101762.83
2018-08-24T05:25:28.941Z,101766.67
2018-08-24T05:27:57.660Z,101757.49
2018-08-24T05:30:26.280Z,101768.08
2018-08-24T05:32:55.004Z,101770.22
2018-08-24T05:35:23.725Z,101773.39
2018-08-24T05:37:52.385Z,101771.69
2018-08-24T05:40:21.093Z,101775.05
2018-08-24T05:42:49.784Z,101771.31
2018-08-24T05:45:18.464Z,101769.83
2018-08-24T05:47:47.101Z,101770.19
2018-08-24T05:50:15.768Z,101772.17
2018-08-24T05:52:44.457Z,101778.33
2018-08-24T05:55:13.321Z,101766.22
2018-08-24T05:57:42.069Z,101776.88
2018-08-24T06:00:10.839Z,101775.52
2018-08-24T06:02:39.617Z,101774.12
2018-08-24T06:05:08.343Z,101773.58
2018-08-24T06:07:36.986Z,101778.77
2018-08-24T06:10:05.700Z,101779.54
2018-08-24T06:12:34.409Z,101773.30
2018-08-24T06:15:03.135Z,101775.70
2018-08-24T06:17:37.036Z,101773.73
2018-08-24T06:20:06.242Z,101778.75
2018-08-24T06:22:34.921Z,101778.61
2018-08-24T06:25:03.615Z,101775.13
2018-08-24T06:27:32.298Z,101785.45
2018-08-24T06:30:01.008Z,101784.87
2018-08-24T06:32:29.672Z,101777.38
2018-08-24T06:34:58.349Z,101787.22
2018-08-24T06:37:27.073Z,101789.52
2018-08-24T06:39:55.747Z,101792.59
2018-08-24T06:42:24.470Z,101790.92
2018-08-24T06:44:53.213Z,101784.20
2018-08-24T06:47:21.976Z,101782.37
2018-08-24T06:49:50.676Z,101782.30
2018-08-24T06:52:19.375Z,101779.98
2018-08-24T06:54:48.044Z,101780.25
2018-08-24T06:57:16.859Z,101777.81
2018-08-24T06:59:45.594Z,101779.20
2018-08-24T07:02:14.267Z,101778.06
2018-08-24T07:04:42.961Z,101771.38
2018-08-24T07:07:11.731Z,101777.78
2018-08-24T07:09:40.583Z,101778.64
2018-08-24T07:12:11.149Z,101780.41
2018-08-24T07:14:40.200Z,101776.33
2018-08-24T07:17:08.884Z,101782.05
2018-08-24T07:19:37.605Z,101785.21
2018-08-24T07:22:06.386Z,101782.33
2018-08-24T07:24:35.064Z,101786.52
2018-08-24T07:27:03.807Z,101787.20
2018-08-24T07:29:32.476Z,101785.74
2018-08-24T07:32:01.169Z,101784.53
2018-08-24T07:34:29.868Z,101782.08
2018-08-24T07:36:58.584Z,101786.31
2018-08-24T07:39:27.299Z,101787.70
2018-08-24T07:41:55.990Z,101778.82
2018-08-24T07:44:24.644Z,101783.46
2018-08-24T07:46:53.358Z,101782.36
2018-08-24T07:49:22.116Z,101780.05
2018-08-24T07:51:50.791Z,101789.63
2018-08-24T07:54:19.491Z,101785.78
2018-08-24T07:56:48.149Z,101779.37
2018-08-24T07:59:16.819Z,101779.19
2018-08-24T08:01:45.720Z,101786.31
2018-08-24T08:04:14.528Z,101792.87
2018-08-24T08:06:43.215Z,101801.35
2018-08-24T08:09:11.924Z,101791.09
2018-08-24T08:11:41.264Z,101791.77
2018-08-24T08:14:10.329Z,101788.22
2018-08-24T08:16:39.035Z,101792.25
2018-08-24T08:19:07.900Z,101796.50
2018-08-24T08:21:36.694Z,101799.89
2018-08-24T08:24:05.723Z,101798.11
2018-08-24T08:26:34.715Z,101792.38
2018-08-24T08:29:03.619Z,101795.85
2018-08-24T08:31:32.550Z,101791.91
2018-08-24T08:34:01.442Z,101795.95
2018-08-24T08:36:30.310Z,101802.76
2018-08-24T08:38:59.194Z,101799.83
2018-08-24T08:41:27.948Z,101802.67
2018-08-24T08:43:56.724Z,101811.48
2018-08-24T08:46:25.617Z,101813.24
2018-08-24T08:48:54.502Z,101802.83
2018-08-24T08:51:23.258Z,101804.98
2018-08-24T08:53:52.937Z,101807.82
2018-08-24T08:56:21.853Z,101818.88
2018-08-24T08:58:50.572Z,101805.77
2018-08-24T09:01:19.261Z,101808.30
2018-08-24T09:03:47.926Z,101806.91
2018-08-24T09:06:16.604Z,101795.19
2018-08-24T09:08:45.389Z,101800.13
2018-08-24T09:11:14.081Z,101804.89
2018-08-24T09:13:42.735Z,101786.95
2018-08-24T09:16:11.387Z,101797.61
2018-08-24T09:20:48.479Z,101787.55
2018-08-24T09:23:22.210Z,101793.25
2018-08-24T09:25:56.009Z,101789.55
2018-08-24T09:28:29.720Z,101791.76
2018-08-24T09:31:03.333Z,101789.72
2018-08-24T09:33:31.984Z,101801.09
2018-08-24T09:36:04.755Z,101801.45
2018-08-24T09:38:33.422Z,101790.78
2018-08-24T09:41:02.112Z,101791.77
2018-08-24T09:43:35.904Z,101785.63
2018-08-24T09:46:04.678Z,101788.64
2018-08-24T09:48:38.576Z,101788.55
2018-08-24T09:51:12.355Z,101813.78
2018-08-24T09:53:46.122Z,101805.30
2018-08-24T09:56:14.793Z,101793.54
2018-08-24T09:58:43.490Z,101787.03
2018-08-24T10:01:17.276Z,101788.22
2018-08-24T10:03:51.031Z,101790.14
2018-08-24T10:06:24.836Z,101788.89
2018-08-24T10:08:53.512Z,101786.65
2018-08-24T10:11:22.199Z,101786.57
2018-08-24T10:13:50.889Z,101791.32
2018-08-24T10:16:19.616Z,101778.75
2018-08-24T10:18:48.284Z,101778.00
2018-08-24T10:21:16.941Z,101793.03
2018-08-24T10:23:45.693Z,101789.58
2018-08-24T10:26:14.392Z,101788.97
2018-08-24T10:28:43.075Z,101792.36
2018-08-24T10:31:11.764Z,101788.31
2018-08-24T10:33:40.489Z,101795.24
2018-08-24T10:36:09.228Z,101791.30
2018-08-24T10:38:37.985Z,101765.05
2018-08-24T10:41:06.700Z,101768.59
2018-08-24T10:43:35.399Z,101763.78
2018-08-24T10:46:04.119Z,101763.27
2018-08-24T10:48:32.764Z,101771.35
2018-08-24T10:51:01.458Z,101776.27
2018-08-24T10:53:30.132Z,101766.22
2018-08-24T10:55:58.865Z,101768.56
2018-08-24T10:58:27.540Z,101763.27
2018-08-24T11:00:56.219Z,101770.11
2018-08-24T11:03:24.940Z,101758.07
2018-08-24T11:05:53.591Z,101745.85
2018-08-24T11:08:22.282Z,101749.70
2018-08-24T11:10:50.962Z,101743.98
2018-08-24T11:13:19.683Z,101754.66
2018-08-24T11:15:50.388Z,101756.80
2018-08-24T11:18:19.247Z,101749.06
2018-08-24T11:20:48.012Z,101753.52
2018-08-24T11:23:16.723Z,101754.30
2018-08-24T11:25:45.416Z,101746.25
2018-08-24T11:28:14.094Z,101751.60
2018-08-24T11:30:42.789Z,101744.81
2018-08-24T11:33:11.544Z,101737.93
2018-08-24T11:35:40.219Z,101744.35
2018-08-24T11:38:08.981Z,101734.66
2018-08-24T11:40:37.660Z,101733.98
2018-08-24T11:43:06.341Z,101739.07
2018-08-24T11:45:35.104Z,101734.67
2018-08-24T11:48:03.865Z,101741.72
2018-08-24T11:50:32.569Z,101732.19
2018-08-24T11:53:01.252Z,101738.20
2018-08-24T11:55:29.960Z,101731.86
2018-08-24T11:57:58.608Z,101716.95
2018-08-24T12:00:33.152Z,101719.79
2018-08-24T12:03:02.576Z,101715.25
2018-08-24T12:05:31.677Z,101720.36
2018-08-24T12:08:00.451Z,101713.30
2018-08-24T12:10:29.030Z,101733.48
2018-08-24T12:12:58.181Z,101725.48
2018-08-24T12:15:26.851Z,101728.44
2018-08-24T12:17:55.896Z,101715.79
2018-08-24T12:20:24.632Z,101719.01
2018-08-24T12:22:53.380Z,101713.34
2018-08-24T12:25:22.072Z,101717.61
2018-08-24T12:27:50.735Z,101715.09
2018-08-24T12:30:19.435Z,101738.59
2018-08-24T12:32:48.140Z,101715.35
2018-08-24T12:35:16.855Z,101719.66
2018-08-24T12:37:46.827Z,101720.52
2018-08-24T12:40:16.238Z,101719.63
2018-08-24T12:42:45.079Z,101714.78
2018-08-24T12:45:13.809Z,101708.84
2018-08-24T12:47:42.532Z,101711.48
2018-08-24T12:50:11.444Z,101698.02
2018-08-24T12:52:40.135Z,101701.72
2018-08-24T12:55:08.920Z,101709.47
2018-08-24T12:57:37.611Z,101701.02
2018-08-24T13:00:06.394Z,101712.73
2018-08-24T13:02:35.060Z,101713.86
2018-08-24T13:05:03.819Z,101740.83
2018-08-24T13:07:32.512Z,101729.40
2018-08-24T13:10:01.180Z,101723.83
2018-08-24T13:12:29.877Z,101720.40
2018-08-24T13:14:58.571Z,101718.63
2018-08-24T13:17:27.269Z,101710.27
2018-08-24T13:19:55.932Z,101707.73
2018-08-24T13:22:24.636Z,101698.53
2018-08-24T13:24:53.408Z,101684.89
2018-08-24T13:27:22.201Z,101683.21
2018-08-24T13:29:50.843Z,101682.65
2018-08-24T13:32:19.600Z,101679.62
2018-08-24T13:34:48.308Z,101685.10
2018-08-24T13:37:17.029Z,101681.45
2018-08-24T13:39:45.723Z,101679.50
2018-08-24T13:42:14.437Z,101675.73
2018-08-24T13:44:43.107Z,101675.09
2018-08-24T13:47:11.865Z,101666.63
2018-08-24T13:49:40.541Z,101665.42
2018-08-24T13:52:09.260Z,101652.66
2018-08-24T13:54:37.953Z,101654.00
2018-08-24T13:57:06.684Z,101648.84
2018-08-24T13:59:35.477Z,101647.45
2018-08-24T14:02:04.194Z,101636.45
2018-08-24T14:04:32.879Z,101635.80
2018-08-24T14:07:01.600Z,101627.52
2018-08-24T14:09:30.336Z,101620.27
2018-08-24T14:11:59.072Z,101619.60
2018-08-24T14:14:27.773Z,101629.21
2018-08-24T14:16:56.509Z,101621.96
2018-08-24T14:19:25.232Z,101615.53
2018-08-24T14:21:53.961Z,101607.45
2018-08-24T14:24:22.732Z,101610.09
2018-08-24T14:26:51.418Z,101599.84
2018-08-24T14:29:20.165Z,101596.25
2018-08-24T14:31:49.039Z,101586.30
2018-08-24T14:34:17.657Z,101588.08
2018-08-24T14:36:46.407Z,101598.89
2018-08-24T14:39:15.113Z,101591.08
2018-08-24T14:41:43.787Z,101591.91
2018-08-24T14:44:12.692Z,101597.66
2018-08-24T14:46:41.378Z,101577.83
2018-08-24T14:49:10.086Z,101582.34
2018-08-24T14:51:38.856Z,101581.98
2018-08-24T14:54:07.640Z,101582.80
2018-08-24T14:56:36.324Z,101581.88
2018-08-24T14:59:05.060Z,101581.12
2018-08-24T15:01:33.811Z,101578.77
2018-08-24T15:04:02.519Z,101570.89
2018-08-24T15:06:31.249Z,101567.02
2018-08-24T15:08:59.970Z,101572.67
2018-08-24T15:11:28.680Z,101574.20
2018-08-24T15:13:57.355Z,101579.98
2018-08-24T15:16:26.074Z,101578.72
2018-08-24T15:18:54.788Z,101586.65
2018-08-24T15:21:23.475Z,101583.03
2018-08-24T15:23:52.180Z,101586.88
2018-08-24T15:26:21.087Z,101574.12
2018-08-24T15:28:49.872Z,101577.14
2018-08-24T15:31:18.587Z,101573.18
2018-08-24T15:33:47.323Z,101578.08
2018-08-24T15:36:16.004Z,101575.19
2018-08-24T15:38:44.694Z,101577.19
2018-08-24T15:41:13.388Z,101580.95
2018-08-24T15:43:42.069Z,101586.92
2018-08-24T15:46:10.815Z,101601.22
2018-08-24T15:48:39.532Z,101595.28
2018-08-24T15:51:08.217Z,101582.23
2018-08-24T15:53:36.922Z,101571.45
2018-08-24T15:56:05.698Z,101568.63
2018-08-24T15:58:34.420Z,101563.13
2018-08-24T16:01:03.111Z,101558.44
2018-08-24T16:03:31.789Z,101566.97
2018-08-24T16:06:00.487Z,101565.84
2018-08-24T16:08:29.235Z,101568.01
2018-08-24T16:10:57.912Z,101568.52
2018-08-24T16:13:26.612Z,101570.67
2018-08-24T16:15:55.367Z,101572.77
2018-08-24T16:18:24.876Z,101574.82
2018-08-24T16:20:54.404Z,101584.23
2018-08-24T16:23:23.131Z,101578.06
2018-08-24T16:25:51.880Z,101594.82
2018-08-24T16:28:20.672Z,101598.27
2018-08-24T16:30:49.352Z,101596.88
2018-08-24T16:33:18.645Z,101605.02
2018-08-24T16:35:47.395Z,101592.83
2018-08-24T16:38:16.567Z,101587.59
2018-08-24T16:40:45.220Z,101589.13
2018-08-24T16:43:14.473Z,101580.37
2018-08-24T16:45:43.183Z,101569.10
2018-08-24T16:48:12.885Z,101570.64
2018-08-24T16:50:41.608Z,101556.38
2018-08-24T16:53:10.268Z,101559.45
2018-08-24T16:55:38.968Z,101560.31
2018-08-24T16:58:07.780Z,101549.70
2018-08-24T17:00:36.429Z,101552.72
2018-08-24T17:03:05.100Z,101545.23
2018-08-24T17:05:33.783Z,101545.09
2018-08-24T17:08:02.439Z,101546.71
2018-08-24T17:10:31.101Z,101541.33
2018-08-24T17:12:59.889Z,101541.27
2018-08-24T17:15:28.518Z,101541.09
2018-08-24T17:17:57.249Z,101551.42
2018-08-24T17:20:25.936Z,101543.06
2018-08-24T17:22:54.622Z,101531.14
2018-08-24T17:25:23.336Z,101528.83
2018-08-24T17:27:52.011Z,101535.14
2018-08-24T17:30:20.715Z,101520.05
2018-08-24T17:32:49.463Z,101519.75
2018-08-24T17:35:18.119Z,101513.91
2018-08-24T17:37:46.794Z,101520.27
2018-08-24T17:40:15.476Z,101513.66
2018-08-24T17:42:44.168Z,101513.20
2018-08-24T17:45:12.860Z,101512.66
2018-08-24T17:47:41.620Z,101518.97
2018-08-24T17:50:10.309Z,101515.29
2018-08-24T17:52:38.989Z,101517.20
2018-08-24T17:55:07.873Z,101513.49
2018-08-24T17:57:36.584Z,101526.84
2018-08-24T18:00:05.407Z,101526.84
2018-08-24T18:02:34.071Z,101528.61
2018-08-24T18:05:02.747Z,101532.84
2018-08-24T18:07:31.440Z,101520.50
2018-08-24T18:10:00.121Z,101518.06
2018-08-24T18:12:28.816Z,101520.05
2018-08-24T18:14:57.596Z,101521.20
2018-08-24T18:17:26.210Z,101519.83
2018-08-24T18:19:54.916Z,101510.11
2018-08-24T18:22:23.603Z,101522.11
2018-08-24T18:24:52.288Z,101519.33
2018-08-24T18:27:21.008Z,101516.50
2018-08-24T18:29:49.791Z,101525.02
2018-08-24T18:32:18.485Z,101511.61
2018-08-24T18:34:47.151Z,101519.70
2018-08-24T18:37:15.816Z,101520.34
2018-08-24T18:39:44.518Z,101526.74
2018-08-24T18:42:13.201Z,101513.99
2018-08-24T18:44:41.877Z,101526.25
2018-08-24T18:47:10.680Z,101519.33
2018-08-24T18:49:39.384Z,101519.62
2018-08-24T18:52:08.115Z,101512.78
2018-08-24T18:54:36.813Z,101519.70
2018-08-24T18:57:05.524Z,101525.43
2018-08-24T18:59:34.242Z,101534.12
2018-08-24T19:02:02.979Z,101518.88
2018-08-24T19:04:31.682Z,101522.81
2018-08-24T19:07:00.368Z,101527.11
2018-08-24T19:09:29.255Z,101528.05
2018-08-24T19:12:04.157Z,101523.27
2018-08-24T19:14:33.856Z,101531.50
2018-08-24T19:17:02.626Z,101545.09
2018-08-24T19:19:36.454Z,101538.70
2018-08-24T19:22:05.562Z,101533.34
2018-08-24T19:24:34.376Z,101530.47
2018-08-24T19:27:03.216Z,101535.23
2018-08-24T19:29:37.133Z,101537.85
2018-08-24T19:32:05.963Z,101538.16
2018-08-24T19:34:34.669Z,101541.86
2018-08-24T19:37:03.328Z,101541.47
2018-08-24T19:39:32.317Z,101549.32
2018-08-24T19:42:06.032Z,101550.17
2018-08-24T19:44:34.766Z,101552.25
2018-08-24T19:47:03.589Z,101535.93
2018-08-24T19:49:35.859Z,101557.66
2018-08-24T19:52:04.702Z,101551.87
2018-08-24T19:54:33.423Z,101551.87
2018-08-24T19:57:07.291Z,101550.04
2018-08-24T19:59:36.039Z,101551.20
2018-08-24T20:02:04.714Z,101550.20
2018-08-24T20:04:33.487Z,101552.33
2018-08-24T20:07:07.515Z,101559.28
2018-08-24T20:09:41.318Z,101559.67
2018-08-24T20:12:10.906Z,101564.91
2018-08-24T20:14:44.755Z,101575.40
2018-08-24T20:17:32.753Z,101571.92
2018-08-24T20:20:01.379Z,101579.47
2018-08-24T20:22:30.103Z,101581.33
2018-08-24T20:24:58.811Z,101579.63
2018-08-24T20:27:27.549Z,101571.05
2018-08-24T20:29:56.165Z,101580.77
2018-08-24T20:32:24.835Z,101581.38
2018-08-24T20:34:53.497Z,101574.91
2018-08-24T20:37:22.221Z,101579.84
2018-08-24T20:39:50.862Z,101578.12
2018-08-24T20:42:19.510Z,101585.08
2018-08-24T20:44:48.119Z,101579.84
2018-08-24T20:47:16.861Z,101576.83
2018-08-24T20:49:45.477Z,101582.46
2018-08-24T20:52:14.118Z,101577.59
2018-08-24T20:54:42.813Z,101577.98
2018-08-24T20:57:11.506Z,101578.89
2018-08-24T20:59:40.198Z,101585.94
2018-08-24T21:02:09.256Z,101581.61
2018-08-24T21:04:37.869Z,101589.01
2018-08-24T21:07:06.782Z,101582.06
2018-08-24T21:09:35.384Z,101582.06
2018-08-24T21:12:04.047Z,101582.91
2018-08-24T21:14:32.815Z,101587.30
2018-08-24T21:17:01.558Z,101583.77
2018-08-24T21:19:30.318Z,101579.84
2018-08-24T21:21:59.002Z,101584.38
2018-08-24T21:24:27.698Z,101592.99
2018-08-24T21:26:56.443Z,101592.23
2018-08-24T21:29:25.160Z,101587.53
2018-08-24T21:31:53.839Z,101589.84
2018-08-24T21:34:22.653Z,101596.53
2018-08-24T21:36:51.280Z,101592.30
2018-08-24T21:39:19.930Z,101597.22
2018-08-24T21:41:48.578Z,101595.51
2018-08-24T21:44:17.205Z,101602.97
2018-08-24T21:46:45.817Z,101606.52
2018-08-24T21:49:14.441Z,101604.36
2018-08-24T21:51:43.062Z,101609.69
2018-08-24T21:54:11.648Z,101613.21
2018-08-24T21:56:40.209Z,101615.52
2018-08-24T21:59:08.806Z,101620.80
2018-08-24T22:01:37.488Z,101618.67
2018-08-24T22:04:06.082Z,101623.97
2018-08-24T22:06:34.663Z,101622.25
2018-08-24T22:09:03.681Z,101620.27
2018-08-24T22:11:32.409Z,101620.72
2018-08-24T22:14:01.147Z,101619.14
2018-08-24T22:16:29.951Z,101622.70
2018-08-24T22:18:58.573Z,101617.61
2018-08-24T22:21:27.204Z,101620.28
2018-08-24T22:23:55.845Z,101623.75
2018-08-24T22:26:24.592Z,101625.60
2018-08-24T22:28:53.247Z,101624.29
2018-08-24T22:31:21.947Z,101633.05
2018-08-24T22:33:50.628Z,101638.37
2018-08-24T22:36:19.295Z,101637.59
2018-08-24T22:38:48.045Z,101635.48
2018-08-24T22:41:16.702Z,101629.48
2018-08-24T22:43:45.374Z,101628.22
2018-08-24T22:46:13.995Z,101627.42
2018-08-24T22:48:42.654Z,101625.34
2018-08-24T22:51:11.343Z,101627.64
2018-08-24T22:53:39.983Z,101624.70
2018-08-24T22:56:08.688Z,101623.94
2018-08-24T22:58:37.358Z,101627.91
2018-08-24T23:01:06.270Z,101619.51
2018-08-24T23:03:34.921Z,101627.36
2018-08-24T23:06:03.569Z,101622.17
2018-08-24T23:08:32.211Z,101626.19
2018-08-24T23:11:01.056Z,101631.41
2018-08-24T23:13:29.747Z,101627.04
2018-08-24T23:15:58.353Z,101623.97
2018-08-24T23:18:27.076Z,101625.65
2018-08-24T23:20:55.790Z,101626.91
2018-08-24T23:23:24.448Z,101637.73
2018-08-24T23:25:53.098Z,101632.50
2018-08-24T23:28:21.761Z,101626.82
2018-08-24T23:30:50.389Z,101631.20
2018-08-24T23:33:19.258Z,101632.14
2018-08-24T23:35:47.921Z,101634.80
2018-08-24T23:38:16.650Z,101626.05
2018-08-24T23:40:45.371Z,101623.89
2018-08-24T23:43:14.064Z,101621.27
2018-08-24T23:45:42.731Z,101619.97
2018-08-24T23:48:11.330Z,101622.12
2018-08-24T23:50:39.942Z,101623.44
2018-08-24T23:53:08.596Z,101624.29
2018-08-24T23:55:37.262Z,101620.28
2018-08-24T23:58:06.175Z,101626.28
